Time;durP1;ratioP1;P1;durP2;ratioP2;P2;SDS_P1;SDS_P2;PMS_P1;PMS_P2;Temp;Humidity;BMP_temperature;BMP_pressure;BME280_temperature;BME280_humidity;BME280_pressure;Samples;Min_cycle;Max_cycle;Signal;HPM_P1;HPM_P2
2021/06/25 00:00:24;;;;;;;15.83;6.30;;;;;;;27.45;61.90;100323.78;1826196;77;22151;-61
2021/06/25 00:02:58;;;;;;;13.75;6.03;;;;;;;27.44;61.86;100327.47;1813394;77;22630;-61
2021/06/25 00:05:31;;;;;;;13.45;6.72;;;;;;;27.39;61.93;100328.86;1852878;77;22191;-61
2021/06/25 00:08:05;;;;;;;13.05;6.10;;;;;;;27.36;61.98;100324.59;1813070;77;22188;-58
2021/06/25 00:10:50;;;;;;;14.35;6.10;;;;;;;27.37;61.88;100320.91;1785099;80;21102;-58
2021/06/25 00:13:24;;;;;;;13.62;6.00;;;;;;;27.34;61.96;100315.75;1814497;77;22234;-57
2021/06/25 00:15:57;;;;;;;11.08;5.80;;;;;;;27.21;62.34;100308.31;1849970;77;22201;-57
2021/06/25 00:18:30;;;;;;;15.05;6.10;;;;;;;27.23;62.18;100307.69;1765847;77;22233;-61
2021/06/25 00:21:04;;;;;;;11.48;5.95;;;;;;;27.23;61.93;100309.88;1834540;77;22203;-58
2021/06/25 00:23:37;;;;;;;15.65;6.22;;;;;;;27.15;62.14;100309.69;1802354;77;22187;-57
2021/06/25 00:26:23;;;;;;;9.80;5.65;;;;;;;27.03;62.38;100321.00;1757706;81;21102;-62
2021/06/25 00:28:56;;;;;;;11.95;6.25;;;;;;;27.03;62.37;100318.30;1811453;77;22170;-57
2021/06/25 00:31:29;;;;;;;11.33;5.83;;;;;;;26.96;62.36;100317.09;1833398;77;22603;-61
2021/06/25 00:34:03;;;;;;;12.90;5.78;;;;;;;26.91;62.34;100316.13;1820365;77;22594;-61
2021/06/25 00:36:37;;;;;;;9.48;5.37;;;;;;;26.88;62.40;100320.94;1819164;77;22630;-58
2021/06/25 00:39:23;;;;;;;19.40;6.62;;;;;;;26.82;62.48;100315.53;1793005;80;21471;-62
2021/06/25 00:41:56;;;;;;;12.85;5.65;;;;;;;26.83;62.62;100311.84;1845721;77;22201;-61
2021/06/25 00:44:29;;;;;;;10.38;6.37;;;;;;;26.84;62.78;100318.97;1823007;77;22546;-57
2021/06/25 00:47:03;;;;;;;11.30;6.00;;;;;;;26.89;62.61;100307.80;1813665;77;22210;-62
2021/06/25 00:49:38;;;;;;;12.63;6.72;;;;;;;26.85;62.78;100305.83;1834529;77;22207;-58
2021/06/25 00:52:24;;;;;;;11.05;6.72;;;;;;;26.90;62.56;100314.41;1779496;80;21328;-62
2021/06/25 00:54:57;;;;;;;12.55;7.53;;;;;;;26.93;62.60;100311.46;1838434;77;22569;-62
2021/06/25 00:57:30;;;;;;;17.67;7.28;;;;;;;26.88;62.72;100306.09;1819801;77;22238;-57
2021/06/25 01:00:07;;;;;;;11.43;6.72;;;;;;;26.81;62.77;100302.98;1834543;77;22172;-61
2021/06/25 01:03:00;;;;;;;18.40;9.03;;;;;;;26.79;62.73;100296.85;1795979;77;28482;-61
2021/06/25 01:05:34;;;;;;;11.03;7.40;;;;;;;26.79;62.70;100296.85;1814510;77;22134;-58
2021/06/25 01:08:22;;;;;;;12.78;7.35;;;;;;;26.75;62.67;100298.08;1768014;80;21540;-63
2021/06/25 01:10:55;;;;;;;14.25;7.47;;;;;;;26.67;62.82;100296.02;1821839;77;22187;-62
2021/06/25 01:13:28;;;;;;;16.45;7.75;;;;;;;26.63;62.93;100285.98;1792028;77;23195;-57
2021/06/25 01:16:02;;;;;;;14.28;7.12;;;;;;;26.58;62.92;100282.80;1853052;77;22163;-61
2021/06/25 01:18:35;;;;;;;13.62;7.65;;;;;;;26.51;63.00;100289.16;1805192;77;22230;-62
2021/06/25 01:21:21;;;;;;;10.60;6.97;;;;;;;26.39;63.16;100289.67;1760788;80;21729;-58
2021/06/25 01:23:55;;;;;;;12.37;7.60;;;;;;;26.33;63.25;100283.93;1814634;77;22588;-62
2021/06/25 01:26:47;;;;;;;15.68;7.20;;;;;;;26.26;63.38;100287.11;1820063;77;22250;-63
2021/06/25 01:29:20;;;;;;;12.55;7.22;;;;;;;26.25;63.42;100293.48;1848659;77;22150;-58
2021/06/25 01:32:13;;;;;;;13.38;7.40;;;;;;;26.18;63.72;100295.46;1821797;77;22276;-62
2021/06/25 01:35:01;;;;;;;15.65;7.47;;;;;;;26.18;63.59;100305.74;1798696;79;21165;-63
2021/06/25 01:37:34;;;;;;;15.10;9.58;;;;;;;26.10;63.90;100294.20;1803377;77;28507;-62
2021/06/25 01:40:10;;;;;;;17.12;8.68;;;;;;;26.11;63.92;100299.95;1832573;77;22175;-62
2021/06/25 01:43:02;;;;;;;15.83;7.35;;;;;;;26.08;63.92;100304.24;1772675;78;21673;-58
2021/06/25 01:45:37;;;;;;;16.62;7.50;;;;;;;26.08;64.05;100301.55;1834538;77;22556;-62
2021/06/25 01:48:11;;;;;;;13.30;7.22;;;;;;;26.06;63.99;100302.63;1829107;77;22605;-62
2021/06/25 01:50:58;;;;;;;14.35;7.60;;;;;;;26.01;63.95;100310.25;1788214;80;21079;-58
2021/06/25 01:53:32;;;;;;;13.08;7.80;;;;;;;26.01;63.93;100315.14;1806273;77;22223;-62
2021/06/25 01:56:05;;;;;;;14.28;7.28;;;;;;;25.98;63.88;100310.86;1834519;77;22136;-62
2021/06/25 01:58:51;;;;;;;21.45;7.92;;;;;;;25.94;63.83;100305.34;1705175;83;21680;-59
2021/06/25 02:01:24;;;;;;;13.38;7.25;;;;;;;25.95;63.99;100298.97;1852906;77;22600;-57
2021/06/25 02:03:58;;;;;;;13.45;7.05;;;;;;;25.95;63.98;100292.70;1834513;77;22180;-62
2021/06/25 02:06:31;;;;;;;12.75;7.08;;;;;;;25.97;64.01;100294.78;1829672;77;22159;-62
2021/06/25 02:09:17;;;;;;;16.20;7.40;;;;;;;26.01;63.86;100310.25;1754708;81;21111;-58
2021/06/25 02:11:50;;;;;;;14.07;7.25;;;;;;;25.99;64.12;100299.57;1828822;77;23244;-57
2021/06/25 02:14:24;;;;;;;13.62;7.42;;;;;;;25.96;64.20;100293.95;1834534;77;22140;-59
2021/06/25 02:16:58;;;;;;;15.15;8.38;;;;;;;25.93;64.37;100290.14;1813224;77;22691;-63
2021/06/25 02:19:31;;;;;;;15.53;7.37;;;;;;;25.91;64.55;100284.48;1812147;77;22631;-58
2021/06/25 02:22:17;;;;;;;14.87;7.33;;;;;;;25.86;64.74;100301.03;1761703;80;21200;-60
2021/06/25 02:24:50;;;;;;;13.00;7.65;;;;;;;25.84;64.88;100285.47;1833811;77;22144;-62
2021/06/25 02:27:23;;;;;;;11.20;7.22;;;;;;;25.81;65.06;100284.35;1833143;77;22671;-62
2021/06/25 02:29:57;;;;;;;14.80;7.95;;;;;;;25.78;65.27;100280.08;1834544;77;22175;-58
2021/06/25 02:32:46;;;;;;;17.62;8.50;;;;;;;25.74;65.45;100289.38;1728355;82;21720;-60
2021/06/25 02:35:19;;;;;;;16.37;8.00;;;;;;;25.77;65.50;100284.22;1815218;77;22151;-62
2021/06/25 02:37:55;;;;;;;13.78;8.18;;;;;;;25.77;65.64;100290.96;1811219;77;22202;-58
2021/06/25 02:40:42;;;;;;;13.65;8.03;;;;;;;25.74;65.75;100297.46;1764821;81;21545;-60
2021/06/25 02:43:15;;;;;;;13.58;7.85;;;;;;;25.73;65.84;100293.05;1808858;77;22661;-63
2021/06/25 02:45:48;;;;;;;18.57;8.18;;;;;;;25.68;65.89;100292.04;1822847;77;22201;-61
2021/06/25 02:48:21;;;;;;;17.02;8.90;;;;;;;25.68;66.07;100294.73;1808284;77;22598;-62
2021/06/25 02:50:54;;;;;;;11.90;8.58;;;;;;;25.69;66.21;100291.57;1834593;77;22168;-58
2021/06/25 02:53:47;;;;;;;18.07;7.78;;;;;;;25.70;66.33;100285.20;1792366;77;22676;-60
2021/06/25 02:56:20;;;;;;;14.45;7.85;;;;;;;25.73;66.39;100279.58;1851847;77;22175;-58
2021/06/25 02:58:53;;;;;;;13.40;8.35;;;;;;;25.77;66.39;100289.14;1834565;77;22175;-62
2021/06/25 03:01:26;;;;;;;14.05;8.28;;;;;;;25.79;66.39;100277.75;1830586;77;22119;-62
2021/06/25 03:04:12;;;;;;;17.32;9.23;;;;;;;25.77;66.49;100286.45;1736397;81;21162;-64
2021/06/25 03:06:51;;;;;;;17.98;11.33;;;;;;;25.80;66.53;100277.25;1816453;77;22609;-58
2021/06/25 03:09:24;;;;;;;13.70;8.13;;;;;;;25.82;66.51;100277.98;1834649;77;22176;-62
2021/06/25 03:12:10;;;;;;;22.25;9.30;;;;;;;25.80;66.61;100293.42;1736883;81;21186;-58
2021/06/25 03:14:44;;;;;;;20.90;8.53;;;;;;;25.86;66.66;100282.63;1834524;77;22176;-63
2021/06/25 03:17:17;;;;;;;15.58;7.80;;;;;;;25.88;66.69;100287.42;1803579;77;22677;-62
2021/06/25 03:19:50;;;;;;;17.65;7.97;;;;;;;25.89;66.56;100294.05;1830624;77;22179;-58
2021/06/25 03:22:43;;;;;;;13.85;8.08;;;;;;;25.91;66.58;100291.22;1801939;77;22305;-57
2021/06/25 03:25:16;;;;;;;15.55;7.65;;;;;;;25.93;66.53;100299.58;1828922;77;22542;-58
2021/06/25 03:28:03;;;;;;;14.40;8.48;;;;;;;25.94;66.51;100316.59;1774130;80;21141;-63
2021/06/25 03:30:36;;;;;;;18.57;9.05;;;;;;;26.00;66.58;100323.37;1823426;77;22135;-57
2021/06/25 03:33:10;;;;;;;17.07;10.03;;;;;;;26.01;66.65;100332.67;1810841;77;22206;-57
2021/06/25 03:35:55;;;;;;;13.65;9.65;;;;;;;25.97;66.70;100333.41;1761581;81;21654;-59
2021/06/25 03:38:48;;;;;;;20.30;10.03;;;;;;;26.06;66.73;100338.56;1806958;77;22226;-62
2021/06/25 03:41:21;;;;;;;20.95;10.65;;;;;;;26.09;66.75;100345.54;1821520;77;22641;-63
2021/06/25 03:43:54;;;;;;;17.05;9.88;;;;;;;26.14;66.82;100328.55;1833821;77;22151;-57
2021/06/25 03:46:27;;;;;;;19.75;11.12;;;;;;;26.19;66.91;100325.00;1833053;77;22199;-57
2021/06/25 03:49:00;;;;;;;13.45;9.93;;;;;;;26.22;66.93;100322.05;1833568;77;22166;-57
2021/06/25 03:51:34;;;;;;;18.42;10.15;;;;;;;26.24;66.97;100325.48;1832452;77;22176;-57
2021/06/25 03:54:07;;;;;;;19.62;10.63;;;;;;;26.27;67.08;100319.86;1833622;77;22112;-60
2021/06/25 03:56:40;;;;;;;18.10;10.18;;;;;;;26.31;67.03;100329.89;1826736;77;22155;-62
2021/06/25 03:59:13;;;;;;;14.05;10.58;;;;;;;26.35;67.10;100334.58;1802111;77;22182;-62
2021/06/25 04:01:59;;;;;;;15.63;10.63;;;;;;;26.34;67.09;100335.05;1761740;81;21202;-58
2021/06/25 04:04:32;;;;;;;15.98;10.30;;;;;;;26.41;67.27;100330.05;1849417;77;22203;-57
2021/06/25 04:07:06;;;;;;;14.53;10.72;;;;;;;26.24;67.87;100333.58;1820538;77;22190;-58
2021/06/25 04:09:39;;;;;;;21.75;10.55;;;;;;;26.24;68.14;100330.88;1851854;77;22736;-61
2021/06/25 04:12:12;;;;;;;13.70;10.48;;;;;;;26.32;68.13;100337.52;1823458;77;22203;-57
2021/06/25 04:14:59;;;;;;;17.23;11.38;;;;;;;26.25;68.42;100347.44;1760576;81;21139;-63
2021/06/25 04:17:32;;;;;;;16.07;10.48;;;;;;;26.37;68.48;100341.55;1817360;77;22214;-57
2021/06/25 04:20:07;;;;;;;19.92;11.45;;;;;;;26.45;68.42;100344.13;1834465;77;22160;-58
2021/06/25 04:22:40;;;;;;;15.85;11.60;;;;;;;26.50;68.50;100352.21;1811660;77;22213;-62
2021/06/25 04:25:25;;;;;;;20.88;11.20;;;;;;;26.49;68.69;100350.53;1762511;81;21095;-61
2021/06/25 04:27:58;;;;;;;17.55;11.15;;;;;;;26.55;68.85;100347.81;1813362;77;22214;-57
2021/06/25 04:30:32;;;;;;;21.27;12.98;;;;;;;26.58;69.00;100347.57;1852841;77;22135;-62
2021/06/25 04:33:18;;;;;;;45.12;21.80;;;;;;;26.66;68.91;100350.52;1754691;81;21142;-60
2021/06/25 04:35:53;;;;;;;29.20;14.05;;;;;;;26.83;68.96;100342.42;1834514;77;22586;-58
2021/06/25 04:38:26;;;;;;;22.62;13.35;;;;;;;26.91;68.92;100335.54;1807028;77;23253;-59
2021/06/25 04:41:00;;;;;;;20.60;12.68;;;;;;;27.01;69.18;100325.67;1831554;77;22570;-61
2021/06/25 04:43:46;;;;;;;20.43;12.33;;;;;;;27.08;69.25;100332.80;1751354;80;21173;-62
2021/06/25 04:46:19;;;;;;;16.00;11.53;;;;;;;27.24;69.50;100314.80;1852901;77;22171;-62
2021/06/25 04:48:52;;;;;;;19.20;11.90;;;;;;;27.51;69.15;100321.11;1852879;77;22579;-61
2021/06/25 04:51:25;;;;;;;20.02;12.13;;;;;;;27.71;69.12;100325.28;1833177;77;22148;-58
2021/06/25 04:54:11;;;;;;;17.80;11.00;;;;;;;27.86;69.09;100328.52;1761758;81;21119;-63
2021/06/25 04:56:44;;;;;;;16.02;10.90;;;;;;;28.10;69.06;100331.44;1830171;77;22175;-62
2021/06/25 04:59:17;;;;;;;15.78;11.38;;;;;;;28.30;68.82;100330.56;1852806;77;22143;-58
2021/06/25 05:02:03;;;;;;;17.77;10.43;;;;;;;28.44;68.72;100321.72;1785047;78;21139;-59
2021/06/25 05:04:37;;;;;;;15.85;10.48;;;;;;;28.69;68.22;100315.48;1834568;77;22587;-58
2021/06/25 05:07:10;;;;;;;18.42;10.23;;;;;;;28.89;68.29;100313.19;1824354;77;22174;-57
2021/06/25 05:09:43;;;;;;;20.05;10.10;;;;;;;29.12;67.73;100322.42;1833437;77;22172;-61
2021/06/25 05:12:28;;;;;;;17.90;9.90;;;;;;;29.35;67.26;100325.72;1776862;80;22238;-58
2021/06/25 05:15:02;;;;;;;15.55;8.90;;;;;;;29.67;66.34;100312.86;1834467;77;22635;-58
2021/06/25 05:17:36;;;;;;;13.13;7.85;;;;;;;29.86;65.30;100309.25;1799345;77;22218;-58
2021/06/25 05:20:10;;;;;;;13.60;8.33;;;;;;;30.06;64.50;100306.01;1835711;77;22173;-62
2021/06/25 05:22:44;;;;;;;13.10;8.00;;;;;;;30.25;64.10;100296.94;1806196;77;22633;-61
2021/06/25 05:25:30;;;;;;;12.05;7.72;;;;;;;30.45;63.01;100297.38;1746072;81;21154;-63
2021/06/25 05:28:04;;;;;;;12.88;8.08;;;;;;;30.82;62.44;100293.75;1804416;77;22179;-62
2021/06/25 05:30:37;;;;;;;13.62;7.40;;;;;;;31.11;61.54;100289.47;1809614;77;22458;-62
2021/06/25 05:33:10;;;;;;;12.78;7.90;;;;;;;31.43;61.21;100293.51;1793911;77;22201;-61
2021/06/25 05:35:44;;;;;;;12.37;7.65;;;;;;;31.77;60.42;100288.33;1834524;77;22179;-59
2021/06/25 05:38:17;;;;;;;13.53;6.58;;;;;;;32.03;58.97;100287.80;1806810;77;22162;-61
2021/06/25 05:40:51;;;;;;;12.50;6.12;;;;;;;32.23;57.12;100282.66;1834541;77;22176;-58
2021/06/25 05:43:37;;;;;;;7.95;5.87;;;;;;;32.39;56.24;100283.25;1727915;82;21215;-58
2021/06/25 05:46:11;;;;;;;9.53;6.03;;;;;;;32.55;54.96;100266.95;1834265;77;22200;-58
2021/06/25 05:48:44;;;;;;;12.50;6.08;;;;;;;32.69;53.95;100266.81;1813547;77;22586;-61
2021/06/25 05:51:30;;;;;;;8.38;5.90;;;;;;;32.68;53.59;100263.74;1793034;80;21135;-62
2021/06/25 05:54:04;;;;;;;14.20;7.17;;;;;;;32.66;52.93;100252.19;1834530;77;22175;-58
2021/06/25 05:56:37;;;;;;;11.15;6.08;;;;;;;32.54;52.04;100239.89;1816484;77;22194;-61
2021/06/25 05:59:10;;;;;;;12.63;6.42;;;;;;;32.42;51.66;100231.19;1820077;77;22167;-58
2021/06/25 06:01:44;;;;;;;9.90;5.33;;;;;;;32.25;51.75;100235.17;1840970;77;22183;-61
2021/06/25 06:04:17;;;;;;;9.10;5.42;;;;;;;32.13;51.55;100227.81;1852885;77;22151;-62
2021/06/25 06:06:50;;;;;;;12.18;5.20;;;;;;;32.09;51.24;100230.52;1819463;77;22221;-61
2021/06/25 06:09:37;;;;;;;7.47;4.67;;;;;;;32.02;50.68;100237.10;1728139;83;21340;-60
2021/06/25 06:12:11;;;;;;;9.80;4.95;;;;;;;31.89;50.77;100238.92;1824303;77;22203;-61
2021/06/25 06:14:44;;;;;;;9.65;4.35;;;;;;;31.93;51.41;100236.74;1842606;77;22569;-62
2021/06/25 06:17:29;;;;;;;7.97;4.50;;;;;;;32.24;50.71;100250.30;1779200;78;21179;-60
2021/06/25 06:20:03;;;;;;;9.68;4.00;;;;;;;32.50;49.17;100244.80;1834510;77;22179;-62
2021/06/25 06:31:23;;;;;;;8.73;5.10;;;;;;;33.81;48.12;100280.01;1852860;77;22151;-62
2021/06/25 06:36:45;;;;;;;6.35;4.42;;;;;;;34.31;47.88;100292.17;1817167;77;22169;-61
2021/06/25 06:39:18;;;;;;;9.95;4.90;;;;;;;34.45;47.53;100291.97;1820536;77;22138;-58
2021/06/25 06:41:52;;;;;;;8.88;4.47;;;;;;;34.59;46.99;100300.45;1827813;77;22209;-58
2021/06/25 06:44:38;;;;;;;12.13;5.00;;;;;;;34.71;46.75;100309.95;1776178;80;22338;-59
2021/06/25 06:47:11;;;;;;;12.60;4.40;;;;;;;34.80;45.82;100303.42;1814667;77;22195;-59
2021/06/25 06:49:44;;;;;;;12.37;4.40;;;;;;;34.80;45.63;100308.88;1820493;77;22565;-61
2021/06/25 06:52:30;;;;;;;9.45;4.62;;;;;;;34.77;45.44;100310.61;1769002;80;21126;-59
2021/06/25 06:55:05;;;;;;;10.38;4.47;;;;;;;34.80;45.58;100306.66;1831735;77;22625;-58
2021/06/25 06:57:38;;;;;;;7.72;4.70;;;;;;;34.78;45.71;100304.61;1835426;77;22174;-59
2021/06/25 07:05:08;;;;;;;9.15;4.60;;;;;;;34.72;46.02;100307.56;1826025;77;22622;-61
2021/06/25 07:07:42;;;;;;;9.68;5.37;;;;;;;34.71;46.19;100308.59;1839995;77;22616;-58
2021/06/25 07:10:28;;;;;;;8.40;5.28;;;;;;;34.68;46.37;100305.69;1785609;80;21150;-62
2021/06/25 07:13:01;;;;;;;11.48;5.50;;;;;;;34.82;46.13;100300.49;1807329;77;22158;-61
2021/06/25 07:15:36;;;;;;;10.68;4.95;;;;;;;34.75;45.85;100299.00;1820380;77;22198;-62
2021/06/25 07:18:09;;;;;;;10.05;4.85;;;;;;;34.68;45.98;100299.38;1826587;77;22153;-58
2021/06/25 07:20:42;;;;;;;9.60;5.30;;;;;;;34.75;45.89;100301.73;1819610;77;22203;-59
2021/06/25 07:23:15;;;;;;;11.95;5.97;;;;;;;34.90;45.74;100296.84;1809448;77;22242;-59
2021/06/25 07:25:49;;;;;;;8.35;4.80;;;;;;;35.03;45.83;100293.03;1834524;77;22179;-62
2021/06/25 07:28:22;;;;;;;7.62;5.00;;;;;;;35.18;45.30;100294.45;1804694;77;22170;-58
2021/06/25 07:30:55;;;;;;;13.13;4.25;;;;;;;35.34;46.02;100295.37;1828613;77;22582;-62
2021/06/25 07:33:41;;;;;;;16.90;5.22;;;;;;;35.68;44.92;100289.95;1766537;80;21592;-61
2021/06/25 07:36:19;;;;;;;15.05;5.37;;;;;;;36.13;44.23;100285.38;1846465;77;22162;-64
2021/06/25 07:38:53;;;;;;;11.73;4.12;;;;;;;36.52;43.31;100285.27;1833556;77;22179;-59
2021/06/25 07:41:39;;;;;;;14.73;4.40;;;;;;;36.79;43.00;100302.04;1716884;83;21287;-61
2021/06/25 07:44:13;;;;;;;16.45;5.15;;;;;;;37.27;42.48;100300.11;1852835;77;22179;-61
2021/06/25 07:46:46;;;;;;;10.25;4.15;;;;;;;37.55;41.22;100303.43;1827973;77;22222;-60
2021/06/25 07:49:19;;;;;;;13.80;4.78;;;;;;;37.66;40.56;100302.06;1820132;77;22582;-60
2021/06/25 07:51:52;;;;;;;20.55;4.85;;;;;;;37.52;39.87;100299.73;1846507;77;22205;-60
2021/06/25 07:54:25;;;;;;;11.95;4.65;;;;;;;37.51;39.78;100303.53;1834574;77;22575;-60
2021/06/25 07:56:58;;;;;;;8.83;4.25;;;;;;;37.39;39.50;100308.14;1826537;77;22219;-62
2021/06/25 07:59:31;;;;;;;6.00;3.75;;;;;;;37.46;38.43;100304.11;1834412;77;22163;-60
2021/06/25 08:02:05;;;;;;;8.73;4.22;;;;;;;37.61;38.65;100295.77;1825502;77;22214;-62
2021/06/25 08:04:38;;;;;;;8.98;4.03;;;;;;;37.82;39.12;100296.23;1832438;77;22136;-62
2021/06/25 08:07:24;;;;;;;6.80;3.92;;;;;;;38.14;38.34;100306.31;1769011;80;21280;-62
2021/06/25 08:09:57;;;;;;;10.28;4.08;;;;;;;38.70;37.94;100296.19;1852785;77;22178;-59
2021/06/25 08:12:30;;;;;;;10.82;3.77;;;;;;;39.14;36.90;100298.64;1837720;77;22197;-62
2021/06/25 08:15:05;;;;;;;8.48;3.90;;;;;;;39.37;36.31;100295.50;1834368;77;22179;-62
2021/06/25 08:17:38;;;;;;;9.90;4.08;;;;;;;39.55;36.67;100309.48;1800500;77;22615;-59
2021/06/25 08:20:24;;;;;;;6.90;3.80;;;;;;;39.79;36.30;100307.70;1758015;81;21276;-60
2021/06/25 08:22:58;;;;;;;11.93;4.62;;;;;;;40.09;35.58;100306.69;1813373;77;22206;-62
2021/06/25 08:25:31;;;;;;;12.75;4.05;;;;;;;40.34;35.61;100309.28;1833550;77;22172;-62
2021/06/25 08:28:05;;;;;;;13.62;4.90;;;;;;;40.46;34.66;100311.64;1812045;77;22241;-61
2021/06/25 08:30:51;;;;;;;8.90;4.00;;;;;;;40.42;34.70;100314.01;1761450;81;21333;-62
2021/06/25 08:33:24;;;;;;;7.90;4.17;;;;;;;40.38;34.59;100310.55;1825462;77;22193;-60
2021/06/25 08:35:57;;;;;;;7.53;3.70;;;;;;;40.22;33.67;100314.09;1837458;77;22163;-62
2021/06/25 08:38:30;;;;;;;12.82;4.60;;;;;;;40.00;34.61;100313.48;1806164;77;22617;-60
2021/06/25 08:41:03;;;;;;;9.78;4.08;;;;;;;39.88;34.71;100311.92;1829821;77;22187;-60
2021/06/25 08:43:37;;;;;;;8.10;4.58;;;;;;;39.77;34.42;100314.78;1822195;77;22206;-60
2021/06/25 08:46:11;;;;;;;8.05;3.90;;;;;;;39.62;34.41;100308.09;1852797;77;22202;-62
2021/06/25 08:48:44;;;;;;;13.98;4.67;;;;;;;39.45;35.04;100304.94;1820686;77;22633;-61
2021/06/25 08:51:34;;;;;;;10.75;4.85;;;;;;;39.36;35.53;100311.70;1773059;80;21111;-62
2021/06/25 08:54:07;;;;;;;10.98;4.87;;;;;;;39.30;35.87;100301.53;1833264;77;22176;-59
2021/06/25 08:56:40;;;;;;;8.90;4.30;;;;;;;39.29;36.39;100302.59;1830141;77;22138;-60
2021/06/25 08:59:26;;;;;;;8.60;4.30;;;;;;;39.25;35.89;100300.77;1753295;81;21115;-62
2021/06/25 09:02:01;;;;;;;16.75;5.10;;;;;;;39.31;35.90;100294.42;1826604;77;22202;-59
2021/06/25 09:04:42;;;;;;;9.55;4.35;;;;;;;39.20;34.92;100301.41;1788565;77;22197;-62
2021/06/25 09:07:15;;;;;;;11.60;5.03;;;;;;;39.07;35.37;100305.00;1817868;77;22676;-60
2021/06/25 09:09:49;;;;;;;9.83;4.37;;;;;;;39.07;36.14;100298.64;1811740;77;22178;-59
2021/06/25 09:12:23;;;;;;;11.65;4.80;;;;;;;38.99;35.34;100302.45;1821145;77;22606;-62
2021/06/25 09:15:15;;;;;;;11.78;4.60;;;;;;;39.06;35.56;100302.45;1761322;81;21184;-59
2021/06/25 09:17:57;;;;;;;15.90;4.97;;;;;;;39.18;35.72;100297.16;1809450;77;22581;-62
2021/06/25 09:20:45;;;;;;;11.35;4.65;;;;;;;39.24;35.68;100298.56;1833497;77;22180;-61
2021/06/25 09:23:36;;;;;;;13.55;4.62;;;;;;;39.29;36.08;100293.78;1807797;77;22606;-60
2021/06/25 09:26:10;;;;;;;9.73;4.47;;;;;;;39.28;36.11;100300.34;1832902;77;22626;-61
2021/06/25 09:28:45;;;;;;;13.53;4.90;;;;;;;39.19;36.17;100293.35;1820821;77;22197;-62
2021/06/25 09:31:22;;;;;;;10.05;4.42;;;;;;;39.19;36.27;100283.20;1834560;77;22255;-62
2021/06/25 09:33:56;;;;;;;12.85;4.83;;;;;;;39.28;36.59;100287.13;1833679;77;22536;-60
2021/06/25 09:36:42;;;;;;;13.80;4.70;;;;;;;39.30;35.99;100289.14;1724013;83;21158;-60
2021/06/25 09:39:16;;;;;;;18.20;5.60;;;;;;;39.38;36.00;100294.45;1834442;77;22183;-62
2021/06/25 09:41:49;;;;;;;9.83;4.58;;;;;;;39.49;36.24;100291.06;1828207;77;22186;-59
2021/06/25 09:44:24;;;;;;;10.68;4.60;;;;;;;39.67;36.08;100290.41;1833304;77;22481;-62
2021/06/25 09:47:10;;;;;;;11.05;4.53;;;;;;;39.78;35.55;100286.72;1781119;80;21321;-60
2021/06/25 09:49:43;;;;;;;11.75;4.72;;;;;;;40.02;35.87;100277.44;1852605;77;22198;-63
2021/06/25 09:52:16;;;;;;;13.70;4.83;;;;;;;40.43;35.34;100275.73;1830928;77;22624;-60
2021/06/25 09:54:50;;;;;;;15.13;5.35;;;;;;;40.67;34.79;100271.91;1833074;77;22182;-60
2021/06/25 09:57:27;;;;;;;12.55;5.03;;;;;;;40.84;34.19;100276.39;1821315;77;22207;-59
2021/06/25 10:00:09;;;;;;;18.60;5.72;;;;;;;41.24;34.03;100268.91;1831672;77;22180;-60
2021/06/25 10:02:46;;;;;;;15.35;5.17;;;;;;;41.48;33.90;100277.70;1775331;80;21832;-63
2021/06/25 10:05:19;;;;;;;23.65;6.33;;;;;;;41.93;33.66;100275.79;1822649;77;22171;-63
2021/06/25 10:07:53;;;;;;;16.55;5.67;;;;;;;42.17;33.52;100272.66;1803055;77;22641;-63
2021/06/25 10:10:40;;;;;;;15.20;4.62;;;;;;;42.50;33.12;100270.58;1759804;80;21163;-64
2021/06/25 10:13:14;;;;;;;12.80;4.80;;;;;;;43.17;32.10;100257.13;1803164;78;22272;-63
2021/06/25 10:15:47;;;;;;;19.73;6.10;;;;;;;43.60;31.72;100252.88;1834354;77;22749;-63
2021/06/25 10:18:20;;;;;;;15.95;5.37;;;;;;;43.89;31.34;100256.61;1808387;77;22305;-63
2021/06/25 10:20:54;;;;;;;14.58;4.33;;;;;;;44.09;30.97;100259.00;1822908;77;22524;-64
2021/06/25 10:23:27;;;;;;;11.15;4.60;;;;;;;44.30;30.30;100258.05;1823712;77;22154;-59
2021/06/25 10:26:13;;;;;;;14.75;4.42;;;;;;;44.38;30.02;100258.19;1792417;80;22154;-64
2021/06/25 10:43:53;;;;;;;12.10;4.78;;;;;;;44.95;26.91;100257.91;1822072;77;28107;-63
2021/06/25 10:46:33;;;;;;;12.58;4.03;;;;;;;44.87;27.30;100252.76;1832465;77;22360;-60
2021/06/25 10:49:14;;;;;;;15.03;4.30;;;;;;;44.80;27.12;100249.56;1827121;77;22056;-63
2021/06/25 10:51:47;;;;;;;12.25;4.03;;;;;;;44.89;26.79;100250.57;1845268;77;22153;-60
2021/06/25 10:54:33;;;;;;;13.15;4.20;;;;;;;44.99;25.87;100248.80;1787014;80;21135;-60
2021/06/25 10:57:19;;;;;;;13.13;4.17;;;;;;;45.01;26.33;100248.56;1762098;80;21606;-60
2021/06/25 10:59:53;;;;;;;11.43;4.00;;;;;;;45.17;27.01;100244.63;1833097;77;22145;-59
2021/06/25 11:15:15;;;;;;;14.63;3.80;;;;;;;46.78;25.09;100230.34;1804146;79;28538;-62
2021/06/25 11:17:57;;;;;;;15.28;3.75;;;;;;;46.95;24.69;100224.66;1817858;77;22135;-62
2021/06/25 11:20:56;;;;;;;13.05;4.00;;;;;;;47.02;23.54;100227.20;1758358;81;21142;-63
2021/06/25 11:23:42;;;;;;;15.43;4.67;;;;;;;46.98;24.20;100224.66;1804066;78;28061;-59
2021/06/25 11:26:24;;;;;;;14.35;3.87;;;;;;;46.90;23.90;100219.05;1832622;77;22121;-60
2021/06/25 11:29:10;;;;;;;11.28;4.10;;;;;;;46.82;24.05;100223.67;1728364;82;21292;-63
2021/06/25 11:32:12;;;;;;;11.12;5.08;;;;;;;47.00;24.18;100212.70;1818490;77;22219;-63
2021/06/25 11:34:45;;;;;;;17.32;4.80;;;;;;;46.97;24.57;100218.27;1823568;77;22170;-59
2021/06/25 11:37:19;;;;;;;15.50;4.28;;;;;;;46.91;24.43;100210.41;1851647;77;22246;-61
2021/06/25 11:39:52;;;;;;;13.28;4.33;;;;;;;46.79;24.42;100219.49;1799065;77;22143;-61
2021/06/25 11:42:26;;;;;;;15.63;4.40;;;;;;;46.59;24.44;100217.34;1834507;77;22551;-61
2021/06/25 11:44:59;;;;;;;16.30;5.15;;;;;;;46.41;24.78;100213.81;1818885;77;22153;-61
2021/06/25 11:47:33;;;;;;;9.93;3.72;;;;;;;46.22;24.30;100215.27;1834384;77;22097;-62
2021/06/25 11:50:20;;;;;;;16.80;4.10;;;;;;;46.03;25.07;100215.60;1696364;84;21759;-60
2021/06/25 11:52:53;;;;;;;13.60;4.05;;;;;;;45.82;25.01;100213.95;1831183;77;22120;-62
2021/06/25 11:55:26;;;;;;;13.08;4.12;;;;;;;45.83;24.75;100213.41;1827050;77;22155;-59
2021/06/25 11:57:59;;;;;;;11.55;3.77;;;;;;;45.72;24.81;100205.47;1826337;77;22135;-62
2021/06/25 12:00:34;;;;;;;13.15;4.08;;;;;;;45.69;24.88;100209.63;1834458;77;22290;-59
2021/06/25 12:03:20;;;;;;;13.48;4.72;;;;;;;45.61;24.65;100215.59;1728067;82;21296;-62
2021/06/25 12:05:53;;;;;;;12.58;4.33;;;;;;;45.44;24.27;100213.72;1819552;77;22142;-59
2021/06/25 12:08:26;;;;;;;12.30;3.92;;;;;;;45.22;24.70;100204.45;1817938;77;22139;-59
2021/06/25 12:11:12;;;;;;;12.88;3.98;;;;;;;45.05;24.00;100210.02;1761786;81;21601;-61
2021/06/25 12:13:45;;;;;;;11.63;4.33;;;;;;;44.93;23.99;100213.72;1819580;77;22321;-61
2021/06/25 12:16:18;;;;;;;10.03;3.20;;;;;;;44.84;24.25;100215.20;1836611;77;22114;-62
2021/06/25 12:19:03;;;;;;;10.98;3.65;;;;;;;44.74;24.09;100217.26;1793091;80;21735;-62
2021/06/25 12:21:37;;;;;;;9.28;2.98;;;;;;;44.68;24.30;100210.79;1830557;77;22056;-62
2021/06/25 12:24:10;;;;;;;8.75;3.12;;;;;;;44.64;24.31;100202.67;1813595;77;22174;-62
2021/06/25 12:26:43;;;;;;;11.15;3.27;;;;;;;44.45;24.34;100199.25;1834371;77;22144;-62
2021/06/25 12:29:16;;;;;;;10.43;3.35;;;;;;;44.28;24.07;100195.05;1812262;77;22174;-62
2021/06/25 12:31:51;;;;;;;10.80;3.05;;;;;;;44.05;24.75;100192.63;1833551;77;22223;-62
2021/06/25 12:34:24;;;;;;;12.43;3.05;;;;;;;43.99;25.17;100192.22;1795301;77;22180;-59
2021/06/25 12:37:00;;;;;;;10.13;4.08;;;;;;;43.99;25.24;100188.06;1852737;77;22128;-59
2021/06/25 12:39:53;;;;;;;9.23;3.62;;;;;;;44.05;25.84;100178.77;1808445;77;22127;-59
2021/06/25 12:42:26;;;;;;;18.30;4.87;;;;;;;44.16;25.98;100173.46;1850655;77;22278;-59
2021/06/25 12:45:00;;;;;;;13.62;4.15;;;;;;;43.94;25.79;100174.10;1820167;77;22347;-59